Time;durP1;ratioP1;P1;durP2;ratioP2;P2;SDS_P1;SDS_P2;PMS_P1;PMS_P2;Temp;Humidity;BMP_temperature;BMP_pressure;BME280_temperature;BME280_humidity;BME280_pressure;Samples;Min_cycle;Max_cycle;Signal;HPM_P1;HPM_P2
2022/05/11 00:01:15;;;;;;;2.17;1.00;;;17.10;99.90;;;;;;5090863;28;20047;-57
2022/05/11 00:03:41;;;;;;;1.52;0.88;;;17.10;99.90;;;;;;5090542;28;20408;-56
2022/05/11 00:06:07;;;;;;;3.78;1.10;;;17.10;99.90;;;;;;5090818;28;20046;-57
2022/05/11 00:08:33;;;;;;;2.30;1.08;;;17.10;99.90;;;;;;5090523;28;20024;-57
2022/05/11 00:10:59;;;;;;;4.18;1.27;;;17.10;99.90;;;;;;5090892;28;20081;-57
2022/05/11 00:13:25;;;;;;;2.97;1.00;;;17.10;99.90;;;;;;5090612;28;20525;-57
2022/05/11 00:15:51;;;;;;;3.33;0.90;;;17.10;99.90;;;;;;5090733;28;20549;-57
2022/05/11 00:18:17;;;;;;;3.63;1.05;;;17.10;99.90;;;;;;5090400;28;20449;-57
2022/05/11 00:20:42;;;;;;;2.10;1.23;;;17.10;99.90;;;;;;5090797;28;20063;-57
2022/05/11 00:23:08;;;;;;;2.15;0.93;;;17.10;99.90;;;;;;5090593;28;20020;-57
2022/05/11 00:25:34;;;;;;;4.22;1.13;;;17.00;99.90;;;;;;5090521;28;20020;-57
2022/05/11 00:28:00;;;;;;;2.65;1.00;;;17.00;99.90;;;;;;5090564;28;20035;-57
2022/05/11 00:30:27;;;;;;;4.93;1.05;;;17.00;99.90;;;;;;5090519;28;20020;-57
2022/05/11 00:32:56;;;;;;;2.65;1.10;;;17.00;99.90;;;;;;5091110;28;20034;-56
2022/05/11 00:35:22;;;;;;;3.42;1.33;;;17.00;99.90;;;;;;5090618;28;20051;-57
2022/05/11 00:37:48;;;;;;;2.65;1.20;;;17.00;99.90;;;;;;5090866;28;20024;-57
2022/05/11 00:40:16;;;;;;;5.03;1.52;;;16.90;99.90;;;;;;5090648;28;20020;-57
2022/05/11 00:42:42;;;;;;;3.92;1.08;;;17.00;99.90;;;;;;5090593;28;20020;-57
2022/05/11 00:45:08;;;;;;;5.60;1.58;;;17.00;99.90;;;;;;5090751;28;20131;-57
2022/05/11 00:49:33;;;;;;;3.25;1.30;;;17.00;99.90;;;;;;5090400;28;20025;-57
2022/05/11 00:50:48;;;;;;;2.53;1.25;;;16.90;99.90;;;;;;5090095;28;20024;-58
2022/05/11 00:53:14;;;;;;;3.80;1.38;;;16.90;99.90;;;;;;5090112;28;20492;-59
2022/05/11 00:55:56;;;;;;;2.97;1.40;;;16.90;99.90;;;;;;5090492;28;20495;-56
2022/05/11 00:58:45;;;;;;;2.42;1.50;;;16.90;99.90;;;;;;5089900;28;20507;-56
2022/05/11 01:01:12;;;;;;;2.35;1.40;;;16.80;99.90;;;;;;5090029;28;20028;-55
2022/05/11 01:04:07;;;;;;;3.90;1.50;;;16.90;99.90;;;;;;5089723;28;20032;-56
2022/05/11 01:06:33;;;;;;;2.60;1.23;;;16.80;99.90;;;;;;5087095;28;20040;-56
2022/05/11 01:09:01;;;;;;;2.38;1.45;;;16.80;99.90;;;;;;5090251;28;20024;-56
2022/05/11 01:11:28;;;;;;;1.92;1.50;;;16.80;99.90;;;;;;5089969;28;20024;-56
2022/05/11 01:13:54;;;;;;;2.90;1.30;;;16.80;99.90;;;;;;5090158;28;20024;-56
2022/05/11 01:16:20;;;;;;;3.67;1.20;;;16.80;99.90;;;;;;5090096;28;20047;-57
2022/05/11 01:18:47;;;;;;;2.60;1.30;;;16.80;99.90;;;;;;5090094;28;20335;-56
2022/05/11 01:21:13;;;;;;;3.05;1.40;;;16.80;99.90;;;;;;5089031;28;20020;-56
2022/05/11 01:23:42;;;;;;;5.88;1.52;;;16.70;99.90;;;;;;5089956;28;20040;-56
2022/05/11 01:26:08;;;;;;;2.97;1.27;;;16.70;99.90;;;;;;5093348;28;20024;-56
2022/05/11 01:28:38;;;;;;;2.60;1.23;;;16.70;99.90;;;;;;5093558;28;20047;-56
2022/05/11 01:31:08;;;;;;;2.53;1.33;;;16.70;99.90;;;;;;5093820;28;20035;-56
2022/05/11 01:33:37;;;;;;;5.20;1.77;;;16.70;99.90;;;;;;5093655;28;20511;-56
2022/05/11 01:36:25;;;;;;;4.88;1.40;;;16.60;99.90;;;;;;5093484;28;20059;-56
2022/05/11 01:38:54;;;;;;;2.90;1.23;;;16.70;99.90;;;;;;5093393;28;20027;-56
2022/05/11 01:41:32;;;;;;;3.20;1.75;;;16.60;99.90;;;;;;5094081;28;20032;-56
2022/05/11 01:43:59;;;;;;;1.88;1.10;;;16.60;99.90;;;;;;5093774;28;20424;-57
2022/05/11 01:46:25;;;;;;;4.22;1.50;;;16.60;99.90;;;;;;5093366;28;20453;-56
2022/05/11 01:48:51;;;;;;;5.53;1.88;;;16.60;99.90;;;;;;5093162;28;20100;-56
2022/05/11 01:51:19;;;;;;;3.38;1.75;;;16.60;99.90;;;;;;5093472;28;20020;-57
2022/05/11 01:53:46;;;;;;;5.50;1.35;;;16.50;99.90;;;;;;5093006;28;20035;-56
2022/05/11 01:56:20;;;;;;;2.00;1.40;;;16.50;99.90;;;;;;5093103;28;20067;-57
2022/05/11 01:58:46;;;;;;;4.72;1.75;;;16.50;99.90;;;;;;5093080;28;20043;-56
2022/05/11 02:01:15;;;;;;;4.35;1.58;;;16.50;99.90;;;;;;5093162;28;20038;-56
2022/05/11 02:03:41;;;;;;;4.63;1.63;;;16.40;99.90;;;;;;5093015;28;20499;-56
2022/05/11 02:08:51;;;;;;;3.50;1.52;;;16.40;99.90;;;;;;5092666;28;20452;-56
2022/05/11 02:11:17;;;;;;;2.85;1.55;;;16.30;99.90;;;;;;5093099;28;20042;-56
2022/05/11 02:13:44;;;;;;;4.90;1.55;;;16.40;99.90;;;;;;5092686;28;20032;-56
2022/05/11 02:16:11;;;;;;;4.68;2.10;;;16.40;99.90;;;;;;5092633;28;20036;-56
2022/05/11 02:18:37;;;;;;;2.20;1.75;;;16.40;99.90;;;;;;5092599;28;20021;-56
2022/05/11 02:21:03;;;;;;;4.70;1.40;;;16.30;99.90;;;;;;5092887;28;20027;-55
2022/05/11 02:23:29;;;;;;;3.50;1.50;;;16.30;99.90;;;;;;5092508;28;20414;-56
2022/05/11 02:25:57;;;;;;;7.32;1.80;;;16.30;99.90;;;;;;5092352;28;20043;-56
2022/05/11 02:28:23;;;;;;;4.30;1.75;;;16.30;99.90;;;;;;5092226;28;20020;-56
2022/05/11 02:30:51;;;;;;;4.60;1.60;;;16.20;99.90;;;;;;5092639;28;20055;-56
2022/05/11 02:33:17;;;;;;;2.55;1.33;;;16.10;99.90;;;;;;5092405;28;20078;-56
2022/05/11 02:35:43;;;;;;;2.42;1.42;;;16.10;99.90;;;;;;5091478;28;20071;-56
2022/05/11 02:38:13;;;;;;;3.15;1.65;;;16.20;99.90;;;;;;5092006;28;20059;-56
2022/05/11 02:40:40;;;;;;;2.78;1.63;;;16.00;99.90;;;;;;5092419;28;20103;-56
2022/05/11 02:43:08;;;;;;;5.07;2.08;;;16.00;99.90;;;;;;5092318;28;20362;-56
2022/05/11 02:45:35;;;;;;;4.97;1.92;;;15.90;99.90;;;;;;5092135;28;20024;-56
2022/05/11 02:48:04;;;;;;;3.40;1.67;;;15.90;99.90;;;;;;5092539;28;20024;-56
2022/05/11 02:50:40;;;;;;;2.55;1.90;;;15.90;99.90;;;;;;5092229;28;20378;-55
2022/05/11 02:53:10;;;;;;;3.83;1.83;;;15.80;99.90;;;;;;5092189;28;20078;-56
2022/05/11 02:55:38;;;;;;;3.67;1.60;;;15.80;99.90;;;;;;5091935;28;20525;-55
2022/05/11 02:58:04;;;;;;;3.38;1.70;;;15.80;99.90;;;;;;5092142;28;20020;-56
2022/05/11 03:00:31;;;;;;;4.18;1.73;;;15.70;99.90;;;;;;5092215;28;20031;-56
2022/05/11 03:02:58;;;;;;;3.78;1.80;;;15.70;99.90;;;;;;5092168;28;20040;-55
2022/05/11 03:05:27;;;;;;;5.47;1.90;;;15.70;99.90;;;;;;5091952;28;20054;-56
2022/05/11 03:07:55;;;;;;;4.43;1.50;;;15.60;99.90;;;;;;5091824;28;20016;-55
2022/05/11 03:10:21;;;;;;;3.17;1.50;;;15.60;99.90;;;;;;5092264;28;20059;-55
2022/05/11 03:12:46;;;;;;;2.95;1.63;;;15.60;99.90;;;;;;5091871;28;20016;-56
2022/05/11 03:15:12;;;;;;;5.13;1.65;;;15.50;99.90;;;;;;5091418;28;20399;-56
2022/05/11 03:17:38;;;;;;;5.72;1.83;;;15.40;99.90;;;;;;5091372;28;20148;-58
2022/05/11 03:20:06;;;;;;;4.20;1.80;;;15.40;99.90;;;;;;5091946;28;20028;-56
2022/05/11 03:22:32;;;;;;;4.63;2.00;;;15.30;99.90;;;;;;5091704;28;20393;-56
2022/05/11 03:24:58;;;;;;;5.40;2.00;;;15.30;99.90;;;;;;5091331;28;20016;-56
2022/05/11 03:27:24;;;;;;;4.68;2.08;;;15.30;99.90;;;;;;5091270;28;20146;-57
2022/05/11 03:29:51;;;;;;;7.00;2.00;;;15.30;99.90;;;;;;5091218;28;20024;-56
2022/05/11 03:35:02;;;;;;;3.85;2.00;;;15.30;99.90;;;;;;5090925;28;20104;-56
2022/05/11 03:37:28;;;;;;;5.05;1.92;;;15.20;99.90;;;;;;5091077;28;20114;-56
2022/05/11 03:39:54;;;;;;;5.40;1.83;;;15.10;99.90;;;;;;5091054;28;20135;-56
2022/05/11 03:42:22;;;;;;;3.47;1.83;;;15.00;99.90;;;;;;5091731;28;20024;-55
2022/05/11 03:44:48;;;;;;;3.08;2.10;;;15.00;99.90;;;;;;5090797;28;20048;-56
2022/05/11 03:47:14;;;;;;;4.40;2.17;;;14.90;99.90;;;;;;5090525;28;20099;-56
2022/05/11 03:49:39;;;;;;;7.15;2.35;;;14.80;99.90;;;;;;5091206;28;20123;-55
2022/05/11 03:52:06;;;;;;;5.90;2.08;;;14.80;99.90;;;;;;5091062;28;20434;-56
2022/05/11 03:54:32;;;;;;;4.13;1.90;;;14.80;99.90;;;;;;5090741;28;20044;-56
2022/05/11 03:56:57;;;;;;;3.72;2.00;;;14.70;99.90;;;;;;5090426;28;20477;-55
2022/05/11 03:59:23;;;;;;;5.32;2.38;;;14.70;99.90;;;;;;5090366;28;20024;-56
2022/05/11 04:01:49;;;;;;;5.03;2.40;;;14.70;99.90;;;;;;5090982;28;20031;-55
2022/05/11 04:04:14;;;;;;;4.55;2.17;;;14.60;99.90;;;;;;5090486;28;20536;-56
2022/05/11 04:06:40;;;;;;;7.00;2.42;;;14.50;99.90;;;;;;5090917;28;20385;-56
2022/05/11 04:09:06;;;;;;;7.32;1.90;;;14.50;99.90;;;;;;5091233;28;20045;-56
2022/05/11 04:11:33;;;;;;;4.45;1.88;;;14.50;99.90;;;;;;5091760;28;20083;-56
2022/05/11 04:13:59;;;;;;;6.65;2.28;;;14.40;99.90;;;;;;5091933;28;20035;-56
2022/05/11 04:16:24;;;;;;;7.43;2.17;;;14.40;99.90;;;;;;5092073;28;20107;-56
2022/05/11 04:18:50;;;;;;;6.70;2.08;;;14.40;99.90;;;;;;5091776;28;20028;-55
2022/05/11 04:21:16;;;;;;;6.20;2.20;;;14.30;99.90;;;;;;5091299;28;20473;-55
2022/05/11 04:23:41;;;;;;;8.10;2.15;;;14.30;99.90;;;;;;5090460;28;20030;-56
2022/05/11 04:26:08;;;;;;;7.50;2.47;;;14.30;99.90;;;;;;5090600;28;20028;-55
2022/05/11 04:28:34;;;;;;;5.10;2.58;;;14.30;99.90;;;;;;5090034;28;20020;-56
2022/05/11 04:31:02;;;;;;;6.10;2.38;;;14.30;99.90;;;;;;5090786;28;20049;-56
2022/05/11 04:33:29;;;;;;;8.05;2.28;;;14.30;99.90;;;;;;5090220;28;20059;-55
2022/05/11 04:35:54;;;;;;;6.13;2.22;;;14.30;99.90;;;;;;5090667;28;20043;-56
2022/05/11 04:38:20;;;;;;;4.97;2.53;;;14.30;99.90;;;;;;5091121;28;20039;-56
2022/05/11 04:40:45;;;;;;;8.88;2.80;;;14.20;99.90;;;;;;5090633;28;20481;-56
2022/05/11 04:43:11;;;;;;;9.52;2.60;;;14.20;99.90;;;;;;5090643;28;20032;-56
2022/05/11 04:45:42;;;;;;;8.45;2.58;;;14.30;99.90;;;;;;5090513;28;20027;-56
2022/05/11 04:48:09;;;;;;;8.40;2.42;;;14.30;99.90;;;;;;5090338;28;20024;-56
2022/05/11 04:50:38;;;;;;;10.10;2.30;;;14.30;99.90;;;;;;5090792;28;20389;-55
2022/05/11 04:53:04;;;;;;;10.05;2.53;;;14.20;99.90;;;;;;5090948;28;20027;-56
2022/05/11 04:55:29;;;;;;;6.18;2.53;;;14.20;99.90;;;;;;5090685;28;20103;-56
2022/05/11 04:57:55;;;;;;;7.25;2.63;;;14.20;99.90;;;;;;5091734;28;20565;-55
2022/05/11 05:00:21;;;;;;;10.43;2.40;;;14.10;99.90;;;;;;5094625;28;20043;-55
2022/05/11 05:02:47;;;;;;;4.88;2.10;;;14.10;99.90;;;;;;5096648;28;20354;-55
2022/05/11 05:05:12;;;;;;;5.25;2.45;;;14.10;99.90;;;;;;5096096;28;20028;-56
2022/05/11 05:07:39;;;;;;;12.60;2.50;;;14.20;99.90;;;;;;5095318;28;20052;-56
2022/05/11 05:10:07;;;;;;;8.35;2.45;;;14.20;99.90;;;;;;5095555;28;20497;-55
2022/05/11 05:12:34;;;;;;;9.00;2.17;;;14.20;99.90;;;;;;5079029;28;20021;-55
2022/05/11 05:15:00;;;;;;;11.38;2.70;;;14.20;99.90;;;;;;5074936;28;20537;-55
2022/05/11 05:17:26;;;;;;;9.27;2.40;;;14.20;99.90;;;;;;5055375;28;20076;-55
2022/05/11 05:19:54;;;;;;;5.82;2.00;;;14.20;99.90;;;;;;5061269;28;20075;-56
2022/05/11 05:22:20;;;;;;;7.40;2.10;;;14.30;99.90;;;;;;5089760;28;20634;-56
2022/05/11 05:24:46;;;;;;;5.80;2.08;;;14.40;99.90;;;;;;5092341;28;20039;-56
2022/05/11 05:27:13;;;;;;;5.43;1.70;;;14.50;99.90;;;;;;5071085;28;20099;-55
2022/05/11 05:32:24;;;;;;;5.50;1.70;;;14.50;99.90;;;;;;5086836;28;20055;-54
2022/05/11 05:34:50;;;;;;;8.40;1.70;;;14.50;99.90;;;;;;5086791;28;20074;-56
2022/05/11 05:37:17;;;;;;;3.40;1.45;;;14.50;99.90;;;;;;5082112;28;20029;-56
2022/05/11 05:39:44;;;;;;;5.70;1.73;;;14.60;99.90;;;;;;5078271;28;20070;-55
2022/05/11 05:42:20;;;;;;;7.63;1.80;;;14.60;99.90;;;;;;5087213;28;20491;-59
2022/05/11 05:44:46;;;;;;;8.20;2.05;;;14.70;99.90;;;;;;5064103;28;20017;-55
2022/05/11 05:47:13;;;;;;;7.90;1.90;;;14.70;99.90;;;;;;5066822;28;20071;-55
2022/05/11 05:49:39;;;;;;;9.30;1.80;;;14.80;99.90;;;;;;5072380;28;20385;-55
2022/05/11 05:52:05;;;;;;;4.50;1.20;;;14.90;99.90;;;;;;5065842;28;20032;-55
2022/05/11 05:54:32;;;;;;;7.15;1.40;;;14.90;99.90;;;;;;5073460;28;20036;-55
2022/05/11 05:56:58;;;;;;;4.82;1.75;;;14.90;99.90;;;;;;5066535;28;20024;-55
2022/05/11 05:59:24;;;;;;;6.63;1.83;;;15.00;99.90;;;;;;5067635;28;20050;-56
2022/05/11 06:01:50;;;;;;;8.57;1.63;;;15.20;99.90;;;;;;5064230;28;20024;-55
2022/05/11 06:04:16;;;;;;;5.60;1.58;;;15.30;99.90;;;;;;5067471;28;21218;-56
2022/05/11 06:06:42;;;;;;;6.80;1.30;;;15.40;99.90;;;;;;5066551;28;20465;-56
2022/05/11 06:09:09;;;;;;;6.00;1.38;;;15.30;99.90;;;;;;5066287;28;20053;-55
2022/05/11 06:11:36;;;;;;;8.30;1.50;;;15.30;99.90;;;;;;5067835;28;20478;-56
2022/05/11 06:14:02;;;;;;;7.40;1.73;;;15.40;99.90;;;;;;5063701;28;20066;-55
2022/05/11 06:16:27;;;;;;;11.55;1.70;;;15.50;99.90;;;;;;5062809;28;20032;-55
2022/05/11 06:18:53;;;;;;;8.32;1.60;;;15.60;99.90;;;;;;5058556;28;20411;-55
2022/05/11 06:21:20;;;;;;;9.57;1.92;;;15.80;99.90;;;;;;5054325;28;20754;-56
2022/05/11 06:23:46;;;;;;;7.10;1.15;;;15.90;99.90;;;;;;5060284;28;20525;-55
2022/05/11 06:26:12;;;;;;;5.70;1.58;;;15.80;99.90;;;;;;5050773;28;20036;-56
2022/05/11 06:28:40;;;;;;;10.27;1.95;;;15.90;99.90;;;;;;5052970;28;20087;-55
2022/05/11 06:31:07;;;;;;;9.23;1.60;;;15.90;99.90;;;;;;5052801;28;20080;-57
2022/05/11 06:33:33;;;;;;;8.90;1.60;;;16.00;99.90;;;;;;5058090;28;20519;-55
2022/05/11 06:35:59;;;;;;;4.45;1.27;;;15.90;99.90;;;;;;5048187;28;20125;-55
2022/05/11 06:38:26;;;;;;;6.07;1.70;;;15.90;99.90;;;;;;5054926;28;20052;-55
2022/05/11 06:40:51;;;;;;;3.63;1.20;;;15.70;99.90;;;;;;5054239;28;20107;-55
2022/05/11 06:43:17;;;;;;;7.80;1.50;;;15.80;99.90;;;;;;5056455;28;20777;-55
2022/05/11 06:45:43;;;;;;;6.22;1.10;;;15.80;99.90;;;;;;5055440;28;20027;-56
2022/05/11 06:48:08;;;;;;;7.18;1.17;;;15.80;99.90;;;;;;5057372;28;20432;-55
2022/05/11 06:50:34;;;;;;;7.43;1.38;;;15.90;99.90;;;;;;5061133;28;20557;-55
2022/05/11 06:53:10;;;;;;;5.22;1.17;;;16.20;99.90;;;;;;5056584;28;20267;-55
2022/05/11 06:59:44;;;;;;;5.43;1.38;;;17.00;99.90;;;;;;5019694;28;20121;-56
2022/05/11 07:01:39;;;;;;;5.47;1.20;;;17.80;98.70;;;;;;5050299;28;20036;-56
2022/05/11 07:04:04;;;;;;;6.95;1.15;;;18.00;97.60;;;;;;5056291;28;20033;-55
2022/05/11 07:06:30;;;;;;;3.67;1.10;;;17.80;98.10;;;;;;5054009;28;20034;-56
2022/05/11 07:08:56;;;;;;;7.45;1.15;;;17.90;97.70;;;;;;5055645;28;20535;-55
2022/05/11 07:14:08;;;;;;;4.50;1.33;;;18.60;97.80;;;;;;5056389;28;20039;-55
2022/05/11 07:16:34;;;;;;;7.60;1.80;;;18.90;97.10;;;;;;5059116;28;20024;-55
2022/05/11 07:19:01;;;;;;;3.95;0.95;;;18.80;96.20;;;;;;5061082;28;20109;-55
2022/05/11 07:21:26;;;;;;;5.80;1.35;;;19.10;96.60;;;;;;5058553;28;20115;-55
2022/05/11 07:23:52;;;;;;;5.93;0.95;;;18.70;96.50;;;;;;5053148;28;20103;-56
2022/05/11 07:26:17;;;;;;;6.18;1.30;;;18.80;96.90;;;;;;5058133;28;20039;-56
2022/05/11 07:28:43;;;;;;;7.57;1.52;;;19.30;96.50;;;;;;5052164;28;20710;-56
2022/05/11 07:31:08;;;;;;;9.57;1.60;;;19.30;95.80;;;;;;5055579;28;20031;-57
2022/05/11 07:33:34;;;;;;;5.35;1.45;;;19.60;95.90;;;;;;5057767;28;20520;-56
2022/05/11 07:36:00;;;;;;;7.28;1.70;;;19.70;95.40;;;;;;5061004;28;20086;-56
2022/05/11 07:38:25;;;;;;;4.68;1.60;;;19.50;95.60;;;;;;5058523;28;20565;-56
2022/05/11 07:40:51;;;;;;;6.28;1.40;;;19.40;95.50;;;;;;5061806;28;20033;-56
2022/05/11 07:43:16;;;;;;;6.57;1.38;;;19.20;96.10;;;;;;5056311;28;20028;-56
2022/05/11 07:45:42;;;;;;;5.20;1.52;;;18.90;96.40;;;;;;5056022;28;20048;-56
2022/05/11 07:48:09;;;;;;;4.68;1.20;;;18.60;96.60;;;;;;5056310;28;20108;-56
2022/05/11 07:50:35;;;;;;;4.47;1.10;;;18.60;96.90;;;;;;5058869;28;20034;-56
2022/05/11 07:53:01;;;;;;;6.13;1.45;;;18.60;97.30;;;;;;5055092;28;20063;-56
2022/05/11 07:55:28;;;;;;;7.85;1.50;;;18.90;97.60;;;;;;5058343;28;20032;-56
2022/05/11 08:00:40;;;;;;;6.53;1.30;;;18.80;97.10;;;;;;5062067;28;20094;-56
2022/05/11 08:03:06;;;;;;;7.57;1.40;;;18.40;97.50;;;;;;5059753;28;20406;-56
2022/05/11 08:05:32;;;;;;;9.07;1.80;;;18.30;98.00;;;;;;5056474;28;20059;-56
2022/05/11 08:08:01;;;;;;;5.05;1.40;;;18.20;98.70;;;;;;5058680;28;20078;-56
2022/05/11 08:10:38;;;;;;;5.55;1.40;;;18.00;98.40;;;;;;5053470;28;20029;-56
2022/05/11 08:13:07;;;;;;;8.00;2.10;;;18.10;98.60;;;;;;5051327;28;20056;-56
2022/05/11 08:15:35;;;;;;;6.72;1.52;;;18.50;98.30;;;;;;5052632;28;20668;-56
2022/05/11 08:18:04;;;;;;;10.13;1.75;;;18.80;97.60;;;;;;5055672;28;20237;-56
2022/05/11 08:20:33;;;;;;;21.65;2.55;;;18.40;97.80;;;;;;5055607;28;20033;-55
2022/05/11 08:23:00;;;;;;;16.35;2.25;;;18.50;98.40;;;;;;5059788;28;20028;-56
2022/05/11 08:25:28;;;;;;;4.15;1.20;;;18.90;98.20;;;;;;5055399;28;20519;-57
2022/05/11 08:27:54;;;;;;;10.05;1.45;;;19.20;97.60;;;;;;5048552;28;20120;-56
2022/05/11 08:33:23;;;;;;;6.35;1.58;;;19.50;96.50;;;;;;5052615;28;20628;-56
2022/05/11 08:35:52;;;;;;;8.20;1.40;;;19.20;96.90;;;;;;5057130;28;20060;-56
2022/05/11 08:38:19;;;;;;;3.97;1.50;;;18.80;97.80;;;;;;5061892;28;20456;-56
2022/05/11 08:41:26;;;;;;;7.22;1.70;;;18.80;98.70;;;;;;5064282;28;20070;-56
2022/05/11 08:44:03;;;;;;;7.35;2.03;;;18.70;98.30;;;;;;5060819;28;20397;-56
2022/05/11 08:46:53;;;;;;;8.25;1.80;;;18.60;99.10;;;;;;5055542;28;20070;-56
2022/05/11 08:49:21;;;;;;;5.93;1.70;;;18.70;98.90;;;;;;5060097;28;20069;-56
2022/05/11 08:52:04;;;;;;;7.38;1.95;;;19.00;99.50;;;;;;5059559;28;20058;-56
2022/05/11 08:54:39;;;;;;;8.35;1.80;;;19.10;99.60;;;;;;5053879;28;20028;-56
2022/05/11 08:57:17;;;;;;;5.85;1.92;;;19.30;99.40;;;;;;5055318;28;20024;-56
2022/05/11 08:59:43;;;;;;;7.53;1.83;;;19.50;98.70;;;;;;5057365;28;20043;-56
2022/05/11 09:02:19;;;;;;;11.15;1.92;;;19.30;99.30;;;;;;5055164;28;20058;-56
2022/05/11 09:04:47;;;;;;;5.35;1.88;;;19.50;99.50;;;;;;5057177;28;20008;-56
2022/05/11 09:07:13;;;;;;;4.95;1.92;;;19.30;99.60;;;;;;5060716;28;20025;-56
2022/05/11 09:09:39;;;;;;;7.85;2.13;;;19.30;99.70;;;;;;5065008;28;20055;-56
2022/05/11 09:12:06;;;;;;;7.47;2.17;;;19.50;99.00;;;;;;5068744;28;20382;-56
2022/05/11 09:14:39;;;;;;;7.13;1.98;;;19.70;99.00;;;;;;5065778;28;20077;-56
2022/05/11 09:17:18;;;;;;;6.13;2.10;;;19.80;99.10;;;;;;5058965;28;20032;-56
2022/05/11 09:19:46;;;;;;;5.25;2.20;;;19.90;99.40;;;;;;5056129;28;20131;-57
2022/05/11 09:22:17;;;;;;;6.80;2.70;;;20.10;99.90;;;;;;5061268;28;20044;-57
2022/05/11 09:24:50;;;;;;;4.88;2.00;;;21.10;99.00;;;;;;5063554;28;20044;-57
2022/05/11 09:27:27;;;;;;;6.07;2.10;;;22.50;97.60;;;;;;5061089;28;20020;-56
2022/05/11 09:30:04;;;;;;;4.55;1.92;;;21.30;96.10;;;;;;5059770;28;20452;-56
2022/05/11 09:32:34;;;;;;;4.53;1.50;;;20.40;97.90;;;;;;5062904;28;20033;-56
2022/05/11 09:35:34;;;;;;;7.60;2.10;;;20.40;98.40;;;;;;5063011;28;20052;-57
2022/05/11 09:38:19;;;;;;;7.10;2.22;;;20.40;98.60;;;;;;5060206;28;20494;-56
2022/05/11 09:40:53;;;;;;;6.95;2.10;;;20.90;97.80;;;;;;5059373;28;20040;-56
2022/05/11 09:43:34;;;;;;;10.68;2.25;;;21.40;97.30;;;;;;5057708;28;20032;-57
2022/05/11 09:46:28;;;;;;;5.20;2.00;;;22.40;96.70;;;;;;5060142;28;20112;-57
2022/05/11 09:49:17;;;;;;;6.90;2.20;;;22.50;94.80;;;;;;5055235;28;20567;-57
2022/05/11 09:51:46;;;;;;;5.93;2.42;;;22.50;95.40;;;;;;5062790;28;20037;-57
2022/05/11 09:54:32;;;;;;;4.55;2.20;;;22.50;95.50;;;;;;5056926;28;20560;-56
2022/05/11 09:57:11;;;;;;;6.30;2.35;;;22.30;95.70;;;;;;5055661;28;20031;-57
2022/05/11 09:59:46;;;;;;;5.82;2.45;;;22.00;96.90;;;;;;5058761;28;20528;-56
2022/05/11 10:02:32;;;;;;;6.57;2.90;;;21.10;96.80;;;;;;5056841;28;20424;-56
2022/05/11 10:05:12;;;;;;;4.80;2.58;;;21.70;97.10;;;;;;5063749;28;20048;-56
2022/05/11 10:08:01;;;;;;;5.07;2.45;;;22.20;95.70;;;;;;5057611;28;20039;-57
2022/05/11 10:10:48;;;;;;;8.90;2.78;;;23.00;95.20;;;;;;5057257;28;20638;-57
2022/05/11 10:13:20;;;;;;;5.85;2.70;;;23.20;95.00;;;;;;5075846;28;20033;-57
2022/05/11 10:21:54;;;;;;;7.00;3.08;;;22.80;95.00;;;;;;5062156;28;20618;-57
2022/05/11 10:24:52;;;;;;;7.60;2.30;;;22.90;94.50;;;;;;5053893;28;20025;-57
2022/05/11 10:27:32;;;;;;;7.78;2.80;;;23.00;95.20;;;;;;5042578;28;20033;-57
2022/05/11 10:30:07;;;;;;;7.30;2.80;;;23.20;94.80;;;;;;5057853;28;20502;-57
2022/05/11 10:33:08;;;;;;;8.98;3.00;;;22.90;94.10;;;;;;5058682;28;20120;-57
2022/05/11 10:36:03;;;;;;;6.20;2.83;;;23.00;94.50;;;;;;5066629;28;20041;-58
2022/05/11 10:38:40;;;;;;;9.10;2.88;;;23.50;93.90;;;;;;5060422;28;20028;-57
2022/05/11 10:41:32;;;;;;;5.25;2.78;;;23.50;93.70;;;;;;5060660;28;20036;-57
2022/05/11 10:44:32;;;;;;;8.00;3.08;;;23.40;93.50;;;;;;5061184;28;20025;-58
2022/05/11 10:47:07;;;;;;;7.63;3.08;;;23.40;93.10;;;;;;5060775;28;20041;-58
2022/05/11 10:49:53;;;;;;;6.43;3.17;;;23.90;93.80;;;;;;5062158;28;20510;-57
2022/05/11 10:52:39;;;;;;;11.20;3.63;;;24.20;93.80;;;;;;5064369;28;20445;-57
2022/05/11 10:55:11;;;;;;;9.27;3.53;;;22.90;94.10;;;;;;5065612;28;20047;-56
2022/05/11 10:58:08;;;;;;;7.05;2.97;;;23.00;94.80;;;;;;5056994;28;20468;-56
2022/05/11 11:00:44;;;;;;;7.50;2.50;;;23.60;94.20;;;;;;5065925;28;20025;-56
2022/05/11 11:03:38;;;;;;;8.95;3.08;;;24.30;93.10;;;;;;5064973;28;20036;-57
2022/05/11 11:09:52;;;;;;;8.65;2.60;;;24.10;93.10;;;;;;5046338;28;20036;-58
2022/05/11 11:12:36;;;;;;;7.18;2.20;;;25.30;91.30;;;;;;5056646;28;20135;-57
2022/05/11 11:15:10;;;;;;;8.73;2.58;;;25.60;90.90;;;;;;5062900;28;20085;-57
2022/05/11 11:17:36;;;;;;;11.65;3.08;;;25.40;89.90;;;;;;5063519;28;20024;-57
2022/05/11 11:20:05;;;;;;;11.73;2.85;;;25.50;88.00;;;;;;5063055;28;20036;-57
2022/05/11 11:23:02;;;;;;;7.75;2.90;;;24.90;90.60;;;;;;5064367;28;20017;-56
2022/05/11 11:25:43;;;;;;;7.07;2.65;;;24.80;90.80;;;;;;5069026;28;20033;-57
2022/05/11 11:28:12;;;;;;;10.07;2.42;;;24.30;90.50;;;;;;5061593;28;20111;-57
2022/05/11 11:30:58;;;;;;;6.43;2.85;;;24.20;91.00;;;;;;5066970;28;20389;-57
2022/05/11 11:33:24;;;;;;;8.95;2.80;;;24.60;91.10;;;;;;5083395;28;20657;-57
2022/05/11 11:35:58;;;;;;;8.95;2.88;;;24.20;90.60;;;;;;5078059;28;20139;-57
2022/05/11 11:38:41;;;;;;;8.15;2.42;;;24.50;90.30;;;;;;5079923;28;20048;-57
2022/05/11 11:41:22;;;;;;;8.32;2.78;;;25.30;90.20;;;;;;5086895;28;20115;-57
2022/05/11 11:43:50;;;;;;;8.32;2.50;;;25.00;89.00;;;;;;5085585;28;20017;-57
2022/05/11 11:46:34;;;;;;;11.35;2.25;;;25.40;87.50;;;;;;5080715;28;20023;-57
2022/05/11 11:49:11;;;;;;;6.38;2.15;;;24.70;88.50;;;;;;5074630;28;20059;-56
2022/05/11 11:51:53;;;;;;;10.07;2.25;;;24.90;86.40;;;;;;5059450;28;20016;-57
2022/05/11 11:54:51;;;;;;;7.35;2.72;;;24.80;88.40;;;;;;5071658;28;20401;-58
2022/05/11 11:57:22;;;;;;;8.73;2.67;;;25.60;87.40;;;;;;5059537;28;20401;-57
2022/05/11 12:00:05;;;;;;;8.07;2.57;;;25.60;86.60;;;;;;5052857;28;20027;-57
2022/05/11 12:02:34;;;;;;;8.95;3.00;;;25.40;86.40;;;;;;5063059;28;20025;-57
2022/05/11 12:05:24;;;;;;;5.85;2.55;;;25.10;87.10;;;;;;5062093;28;20481;-57
2022/05/11 12:16:53;;;;;;;8.45;3.10;;;25.10;87.80;;;;;;5051548;28;20848;-56
2022/05/11 12:19:20;;;;;;;5.65;2.33;;;25.50;87.00;;;;;;5049489;28;20025;-57
2022/05/11 12:21:57;;;;;;;9.88;2.40;;;25.80;86.50;;;;;;5049489;28;20017;-57
2022/05/11 12:24:32;;;;;;;7.57;1.90;;;26.10;85.60;;;;;;5059390;28;20137;-57
2022/05/11 12:27:12;;;;;;;8.88;2.47;;;26.10;82.30;;;;;;5067540;28;20024;-57
2022/05/11 12:29:59;;;;;;;9.20;1.90;;;25.70;84.40;;;;;;5054678;28;20488;-57
2022/05/11 12:32:32;;;;;;;7.80;1.50;;;24.60;85.50;;;;;;5062403;28;20036;-57
2022/05/11 12:35:05;;;;;;;;;;;25.00;86.50;;;;;;5070612;28;20054;-60
2022/05/11 12:37:34;;;;;;;4.13;2.03;;;25.90;84.80;;;;;;5070542;28;20247;-57
2022/05/11 12:40:07;;;;;;;6.22;2.05;;;26.10;82.90;;;;;;5070163;28;20544;-57
2022/05/11 12:42:32;;;;;;;5.72;1.98;;;26.00;83.30;;;;;;5070557;28;20060;-57
2022/05/11 12:44:58;;;;;;;5.25;1.95;;;25.50;82.60;;;;;;5070399;28;20059;-57
2022/05/11 12:47:25;;;;;;;8.32;1.75;;;26.00;82.10;;;;;;5070131;28;20116;-57
2022/05/11 12:49:51;;;;;;;6.38;1.67;;;26.10;80.60;;;;;;5070407;28;20099;-57
2022/05/11 12:52:18;;;;;;;3.63;1.60;;;25.90;83.30;;;;;;5070269;28;20351;-57
2022/05/11 12:55:02;;;;;;;8.35;1.35;;;26.80;80.00;;;;;;5070123;28;20536;-58
2022/05/11 12:57:40;;;;;;;4.70;1.60;;;26.60;79.30;;;;;;5070495;28;20016;-57
2022/05/11 13:00:14;;;;;;;7.53;1.95;;;25.70;81.10;;;;;;5070350;28;20029;-57
2022/05/11 13:02:42;;;;;;;4.95;1.65;;;25.80;82.10;;;;;;5070309;28;20028;-57
2022/05/11 13:05:12;;;;;;;6.50;1.70;;;26.20;81.90;;;;;;5070136;28;20032;-57
2022/05/11 13:07:48;;;;;;;6.72;1.40;;;26.50;80.70;;;;;;5070281;28;20382;-57
2022/05/11 13:10:22;;;;;;;5.43;1.50;;;26.90;79.40;;;;;;5069990;28;20024;-57
2022/05/11 13:12:53;;;;;;;4.50;1.60;;;27.60;78.00;;;;;;5070455;28;20021;-57
2022/05/11 13:15:37;;;;;;;6.95;2.10;;;27.00;78.90;;;;;;5070235;28;20025;-58
2022/05/11 13:18:06;;;;;;;7.82;2.00;;;26.30;80.60;;;;;;5069959;28;20032;-57
2022/05/11 13:20:41;;;;;;;5.63;1.90;;;25.30;82.50;;;;;;5071044;28;20036;-57
2022/05/11 13:23:35;;;;;;;5.20;1.63;;;25.20;84.30;;;;;;5074045;28;20107;-57
2022/05/11 13:26:09;;;;;;;8.25;2.10;;;26.30;82.30;;;;;;5072954;28;20051;-57
2022/05/11 13:28:53;;;;;;;7.82;1.60;;;27.20;80.70;;;;;;5072748;28;20438;-58
2022/05/11 13:31:33;;;;;;;10.38;1.88;;;27.40;78.90;;;;;;5066219;28;20032;-57
2022/05/11 13:34:01;;;;;;;6.10;1.90;;;26.30;79.80;;;;;;5072484;28;20082;-57
2022/05/11 13:36:43;;;;;;;8.52;2.10;;;25.60;82.40;;;;;;5072917;28;20487;-57
2022/05/11 13:39:12;;;;;;;4.60;1.63;;;24.90;82.80;;;;;;5073378;28;20056;-57
2022/05/11 13:41:57;;;;;;;8.63;2.33;;;25.30;83.30;;;;;;5073671;28;20039;-57
2022/05/11 13:44:41;;;;;;;10.77;2.28;;;25.30;84.40;;;;;;5073415;28;20029;-57